sensor_id;sensor_type;location;lat;lon;timestamp;temperature;humidity
33793;DHT22;20105;48.764;9.178;2022-08-19T00:01:25;21.50;99.90
33793;DHT22;20105;48.764;9.178;2022-08-19T00:03:51;21.50;99.90
33793;DHT22;20105;48.764;9.178;2022-08-19T00:06:17;21.50;99.90
33793;DHT22;20105;48.764;9.178;2022-08-19T00:08:43;21.50;99.90
33793;DHT22;20105;48.764;9.178;2022-08-19T00:11:09;21.60;99.90
33793;DHT22;20105;48.764;9.178;2022-08-19T00:13:35;21.50;99.90
33793;DHT22;20105;48.764;9.178;2022-08-19T00:16:02;21.60;99.90
33793;DHT22;20105;48.764;9.178;2022-08-19T00:18:27;21.60;99.90
33793;DHT22;20105;48.764;9.178;2022-08-19T00:20:53;21.50;99.90
33793;DHT22;20105;48.764;9.178;2022-08-19T00:23:19;21.50;99.90
33793;DHT22;20105;48.764;9.178;2022-08-19T00:25:45;21.40;99.90
33793;DHT22;20105;48.764;9.178;2022-08-19T00:28:11;21.40;99.90
33793;DHT22;20105;48.764;9.178;2022-08-19T00:30:37;21.40;99.90
33793;DHT22;20105;48.764;9.178;2022-08-19T00:33:03;21.40;99.90
33793;DHT22;20105;48.764;9.178;2022-08-19T00:35:28;21.40;99.90
33793;DHT22;20105;48.764;9.178;2022-08-19T00:37:54;21.40;99.90
33793;DHT22;20105;48.764;9.178;2022-08-19T00:40:20;21.40;99.90
33793;DHT22;20105;48.764;9.178;2022-08-19T00:42:47;21.30;99.90
33793;DHT22;20105;48.764;9.178;2022-08-19T00:45:16;21.30;99.90
33793;DHT22;20105;48.764;9.178;2022-08-19T00:47:44;21.40;99.90
33793;DHT22;20105;48.764;9.178;2022-08-19T00:50:11;21.30;99.90
33793;DHT22;20105;48.764;9.178;2022-08-19T00:52:41;21.20;99.90
33793;DHT22;20105;48.764;9.178;2022-08-19T00:55:14;21.20;99.90
33793;DHT22;20105;48.764;9.178;2022-08-19T00:57:46;21.30;99.90
33793;DHT22;20105;48.764;9.178;2022-08-19T01:00:16;21.20;99.90
33793;DHT22;20105;48.764;9.178;2022-08-19T01:02:42;21.20;99.90
33793;DHT22;20105;48.764;9.178;2022-08-19T01:05:14;21.20;99.90
33793;DHT22;20105;48.764;9.178;2022-08-19T01:07:41;21.10;99.90
33793;DHT22;20105;48.764;9.178;2022-08-19T01:10:13;21.10;99.90
33793;DHT22;20105;48.764;9.178;2022-08-19T01:12:40;21.20;99.90
33793;DHT22;20105;48.764;9.178;2022-08-19T01:15:07;21.20;99.90
33793;DHT22;20105;48.764;9.178;2022-08-19T01:17:34;21.20;99.90
33793;DHT22;20105;48.764;9.178;2022-08-19T01:20:03;21.20;99.90
33793;DHT22;20105;48.764;9.178;2022-08-19T01:22:48;21.20;99.90
33793;DHT22;20105;48.764;9.178;2022-08-19T01:25:17;21.20;99.90
33793;DHT22;20105;48.764;9.178;2022-08-19T01:27:46;21.20;99.90
33793;DHT22;20105;48.764;9.178;2022-08-19T01:30:18;21.30;99.90
33793;DHT22;20105;48.764;9.178;2022-08-19T01:32:44;21.20;99.90
33793;DHT22;20105;48.764;9.178;2022-08-19T01:35:11;21.20;99.90
33793;DHT22;20105;48.764;9.178;2022-08-19T01:37:46;21.20;99.90
33793;DHT22;20105;48.764;9.178;2022-08-19T01:40:12;21.10;99.90
33793;DHT22;20105;48.764;9.178;2022-08-19T01:42:38;21.10;99.90
33793;DHT22;20105;48.764;9.178;2022-08-19T01:45:05;21.10;99.90
33793;DHT22;20105;48.764;9.178;2022-08-19T01:47:35;21.20;99.90
33793;DHT22;20105;48.764;9.178;2022-08-19T01:50:00;21.20;99.90
33793;DHT22;20105;48.764;9.178;2022-08-19T01:52:26;21.20;99.90
33793;DHT22;20105;48.764;9.178;2022-08-19T01:54:52;21.20;99.90
33793;DHT22;20105;48.764;9.178;2022-08-19T01:57:18;21.20;99.90
33793;DHT22;20105;48.764;9.178;2022-08-19T01:59:44;21.10;99.90
33793;DHT22;20105;48.764;9.178;2022-08-19T02:02:10;21.20;99.90
33793;DHT22;20105;48.764;9.178;2022-08-19T02:04:38;21.20;99.90
33793;DHT22;20105;48.764;9.178;2022-08-19T02:07:05;21.20;99.90
33793;DHT22;20105;48.764;9.178;2022-08-19T02:09:31;21.20;99.90
33793;DHT22;20105;48.764;9.178;2022-08-19T02:11:57;21.10;99.90
33793;DHT22;20105;48.764;9.178;2022-08-19T02:14:23;21.10;99.90
33793;DHT22;20105;48.764;9.178;2022-08-19T02:16:48;21.10;99.90
33793;DHT22;20105;48.764;9.178;2022-08-19T02:19:14;21.10;99.90
33793;DHT22;20105;48.764;9.178;2022-08-19T02:21:40;21.20;99.90
33793;DHT22;20105;48.764;9.178;2022-08-19T02:24:06;21.10;99.90
33793;DHT22;20105;48.764;9.178;2022-08-19T02:26:32;21.10;99.90
33793;DHT22;20105;48.764;9.178;2022-08-19T02:28:58;21.10;99.90
33793;DHT22;20105;48.764;9.178;2022-08-19T02:31:25;21.00;99.90
33793;DHT22;20105;48.764;9.178;2022-08-19T02:33:51;21.00;99.90
33793;DHT22;20105;48.764;9.178;2022-08-19T02:36:18;20.90;99.90
33793;DHT22;20105;48.764;9.178;2022-08-19T02:38:45;20.80;99.90
33793;DHT22;20105;48.764;9.178;2022-08-19T02:41:18;20.80;99.90
33793;DHT22;20105;48.764;9.178;2022-08-19T02:43:44;20.80;99.90
33793;DHT22;20105;48.764;9.178;2022-08-19T02:46:16;20.90;99.90
33793;DHT22;20105;48.764;9.178;2022-08-19T02:48:43;20.80;99.90
33793;DHT22;20105;48.764;9.178;2022-08-19T02:51:16;20.80;99.90
33793;DHT22;20105;48.764;9.178;2022-08-19T02:53:42;20.70;99.90
33793;DHT22;20105;48.764;9.178;2022-08-19T02:56:08;20.70;99.90
33793;DHT22;20105;48.764;9.178;2022-08-19T02:58:33;20.70;99.90
33793;DHT22;20105;48.764;9.178;2022-08-19T03:00:59;20.70;99.90
33793;DHT22;20105;48.764;9.178;2022-08-19T03:03:25;20.60;99.90
33793;DHT22;20105;48.764;9.178;2022-08-19T03:05:51;20.60;99.90
33793;DHT22;20105;48.764;9.178;2022-08-19T03:08:17;20.60;99.90
33793;DHT22;20105;48.764;9.178;2022-08-19T03:10:45;20.50;99.90
33793;DHT22;20105;48.764;9.178;2022-08-19T03:13:17;20.50;99.90
33793;DHT22;20105;48.764;9.178;2022-08-19T03:15:45;20.50;99.90
33793;DHT22;20105;48.764;9.178;2022-08-19T03:18:12;20.50;99.90
33793;DHT22;20105;48.764;9.178;2022-08-19T03:20:46;20.40;99.90
33793;DHT22;20105;48.764;9.178;2022-08-19T03:23:12;20.40;99.90
33793;DHT22;20105;48.764;9.178;2022-08-19T03:25:41;20.40;99.90
33793;DHT22;20105;48.764;9.178;2022-08-19T03:28:12;20.40;99.90
33793;DHT22;20105;48.764;9.178;2022-08-19T03:30:38;20.40;99.90
33793;DHT22;20105;48.764;9.178;2022-08-19T03:33:09;20.30;99.90
33793;DHT22;20105;48.764;9.178;2022-08-19T03:35:35;20.30;99.90
33793;DHT22;20105;48.764;9.178;2022-08-19T03:38:05;20.40;99.90
33793;DHT22;20105;48.764;9.178;2022-08-19T03:40:32;20.40;99.90
33793;DHT22;20105;48.764;9.178;2022-08-19T03:42:58;20.30;99.90
33793;DHT22;20105;48.764;9.178;2022-08-19T03:45:24;20.30;99.90
33793;DHT22;20105;48.764;9.178;2022-08-19T03:47:49;20.30;99.90
33793;DHT22;20105;48.764;9.178;2022-08-19T03:50:15;20.30;99.90
33793;DHT22;20105;48.764;9.178;2022-08-19T03:52:41;20.30;99.90
33793;DHT22;20105;48.764;9.178;2022-08-19T03:55:07;20.30;99.90
33793;DHT22;20105;48.764;9.178;2022-08-19T03:57:34;20.30;99.90
33793;DHT22;20105;48.764;9.178;2022-08-19T04:00:00;20.20;99.90
33793;DHT22;20105;48.764;9.178;2022-08-19T04:02:26;20.20;99.90
33793;DHT22;20105;48.764;9.178;2022-08-19T04:04:53;20.20;99.90
33793;DHT22;20105;48.764;9.178;2022-08-19T04:07:22;20.20;99.90
33793;DHT22;20105;48.764;9.178;2022-08-19T04:09:48;20.10;99.90
33793;DHT22;20105;48.764;9.178;2022-08-19T04:12:14;20.10;99.90
33793;DHT22;20105;48.764;9.178;2022-08-19T04:14:42;20.10;99.90
33793;DHT22;20105;48.764;9.178;2022-08-19T04:17:07;20.20;99.90
33793;DHT22;20105;48.764;9.178;2022-08-19T04:19:34;20.20;99.90
33793;DHT22;20105;48.764;9.178;2022-08-19T04:22:00;20.20;99.90
33793;DHT22;20105;48.764;9.178;2022-08-19T04:24:26;20.20;99.90
33793;DHT22;20105;48.764;9.178;2022-08-19T04:26:53;20.20;99.90
33793;DHT22;20105;48.764;9.178;2022-08-19T04:29:21;20.20;99.90
33793;DHT22;20105;48.764;9.178;2022-08-19T04:31:48;20.20;99.90
33793;DHT22;20105;48.764;9.178;2022-08-19T04:34:16;20.20;99.90
33793;DHT22;20105;48.764;9.178;2022-08-19T04:36:45;20.20;99.90
33793;DHT22;20105;48.764;9.178;2022-08-19T04:39:14;20.20;99.90
33793;DHT22;20105;48.764;9.178;2022-08-19T04:41:40;20.20;99.90
33793;DHT22;20105;48.764;9.178;2022-08-19T04:44:26;20.20;99.90
33793;DHT22;20105;48.764;9.178;2022-08-19T04:46:51;20.10;99.90
33793;DHT22;20105;48.764;9.178;2022-08-19T04:49:19;20.10;99.90
33793;DHT22;20105;48.764;9.178;2022-08-19T04:51:47;20.00;99.90
33793;DHT22;20105;48.764;9.178;2022-08-19T04:54:15;20.00;99.90
33793;DHT22;20105;48.764;9.178;2022-08-19T04:56:41;20.10;99.90
33793;DHT22;20105;48.764;9.178;2022-08-19T04:59:07;20.10;99.90
33793;DHT22;20105;48.764;9.178;2022-08-19T05:01:34;20.10;99.90
33793;DHT22;20105;48.764;9.178;2022-08-19T05:04:03;20.10;99.90
33793;DHT22;20105;48.764;9.178;2022-08-19T05:06:31;20.00;99.90
33793;DHT22;20105;48.764;9.178;2022-08-19T05:09:00;20.00;99.90
33793;DHT22;20105;48.764;9.178;2022-08-19T05:11:28;20.10;99.90
33793;DHT22;20105;48.764;9.178;2022-08-19T05:13:54;20.10;99.90
33793;DHT22;20105;48.764;9.178;2022-08-19T05:16:22;20.10;99.90
33793;DHT22;20105;48.764;9.178;2022-08-19T05:18:48;20.10;99.90
33793;DHT22;20105;48.764;9.178;2022-08-19T05:21:33;20.10;99.90
33793;DHT22;20105;48.764;9.178;2022-08-19T05:24:20;20.10;99.90
33793;DHT22;20105;48.764;9.178;2022-08-19T05:26:48;20.20;99.90
33793;DHT22;20105;48.764;9.178;2022-08-19T05:29:16;20.30;99.90
33793;DHT22;20105;48.764;9.178;2022-08-19T05:31:42;20.20;99.90
33793;DHT22;20105;48.764;9.178;2022-08-19T05:34:08;20.20;99.90
33793;DHT22;20105;48.764;9.178;2022-08-19T05:36:38;20.20;99.90
33793;DHT22;20105;48.764;9.178;2022-08-19T05:39:06;20.20;99.90
33793;DHT22;20105;48.764;9.178;2022-08-19T05:41:32;20.20;99.90
33793;DHT22;20105;48.764;9.178;2022-08-19T05:43:58;20.10;99.90
33793;DHT22;20105;48.764;9.178;2022-08-19T05:46:26;20.10;99.90
33793;DHT22;20105;48.764;9.178;2022-08-19T05:48:51;20.10;99.90
33793;DHT22;20105;48.764;9.178;2022-08-19T05:51:17;20.10;99.90
33793;DHT22;20105;48.764;9.178;2022-08-19T05:53:43;20.20;99.90
33793;DHT22;20105;48.764;9.178;2022-08-19T05:56:12;20.20;99.90
33793;DHT22;20105;48.764;9.178;2022-08-19T05:58:39;20.30;99.90
33793;DHT22;20105;48.764;9.178;2022-08-19T06:01:14;20.30;99.90
33793;DHT22;20105;48.764;9.178;2022-08-19T06:03:40;20.30;99.90
33793;DHT22;20105;48.764;9.178;2022-08-19T06:06:11;20.30;99.90
33793;DHT22;20105;48.764;9.178;2022-08-19T06:08:40;20.30;99.90
33793;DHT22;20105;48.764;9.178;2022-08-19T06:13:46;20.30;99.90
33793;DHT22;20105;48.764;9.178;2022-08-19T06:16:16;20.30;99.90
33793;DHT22;20105;48.764;9.178;2022-08-19T06:18:46;20.20;99.90
33793;DHT22;20105;48.764;9.178;2022-08-19T06:21:12;20.10;99.90
33793;DHT22;20105;48.764;9.178;2022-08-19T06:23:38;20.10;99.90
33793;DHT22;20105;48.764;9.178;2022-08-19T06:26:04;20.10;99.90
33793;DHT22;20105;48.764;9.178;2022-08-19T06:28:30;20.20;99.90
33793;DHT22;20105;48.764;9.178;2022-08-19T06:30:55;20.20;99.90
33793;DHT22;20105;48.764;9.178;2022-08-19T06:33:21;20.20;99.90
33793;DHT22;20105;48.764;9.178;2022-08-19T06:35:46;20.20;99.90
33793;DHT22;20105;48.764;9.178;2022-08-19T06:38:13;20.10;99.90
33793;DHT22;20105;48.764;9.178;2022-08-19T06:40:42;20.10;99.90
33793;DHT22;20105;48.764;9.178;2022-08-19T06:43:07;20.20;99.90
33793;DHT22;20105;48.764;9.178;2022-08-19T06:45:33;20.10;99.90
33793;DHT22;20105;48.764;9.178;2022-08-19T06:47:59;20.10;99.90
33793;DHT22;20105;48.764;9.178;2022-08-19T06:50:25;20.00;99.90
33793;DHT22;20105;48.764;9.178;2022-08-19T06:52:51;20.00;99.90
33793;DHT22;20105;48.764;9.178;2022-08-19T06:55:16;19.90;99.90
33793;DHT22;20105;48.764;9.178;2022-08-19T06:57:42;19.90;99.90
33793;DHT22;20105;48.764;9.178;2022-08-19T07:00:09;19.90;99.90
33793;DHT22;20105;48.764;9.178;2022-08-19T07:02:41;19.90;99.90
33793;DHT22;20105;48.764;9.178;2022-08-19T07:05:07;19.80;99.90
33793;DHT22;20105;48.764;9.178;2022-08-19T07:07:33;19.80;99.90
33793;DHT22;20105;48.764;9.178;2022-08-19T07:09:59;19.90;99.90
33793;DHT22;20105;48.764;9.178;2022-08-19T07:12:29;19.80;99.90
33793;DHT22;20105;48.764;9.178;2022-08-19T07:14:58;19.90;99.90
33793;DHT22;20105;48.764;9.178;2022-08-19T07:17:23;19.90;99.90
33793;DHT22;20105;48.764;9.178;2022-08-19T07:19:49;20.00;99.90
33793;DHT22;20105;48.764;9.178;2022-08-19T07:22:15;20.00;99.90
33793;DHT22;20105;48.764;9.178;2022-08-19T07:24:41;20.10;99.90
33793;DHT22;20105;48.764;9.178;2022-08-19T07:27:06;20.10;99.90
33793;DHT22;20105;48.764;9.178;2022-08-19T07:29:34;20.10;99.90
33793;DHT22;20105;48.764;9.178;2022-08-19T07:32:01;20.10;99.90
33793;DHT22;20105;48.764;9.178;2022-08-19T07:34:29;20.10;99.90
33793;DHT22;20105;48.764;9.178;2022-08-19T07:36:56;20.10;99.90
33793;DHT22;20105;48.764;9.178;2022-08-19T07:39:25;20.20;99.90
33793;DHT22;20105;48.764;9.178;2022-08-19T07:41:52;20.10;99.90
33793;DHT22;20105;48.764;9.178;2022-08-19T07:44:19;20.00;99.90
33793;DHT22;20105;48.764;9.178;2022-08-19T07:46:50;20.00;99.90
33793;DHT22;20105;48.764;9.178;2022-08-19T07:49:17;20.00;99.90
33793;DHT22;20105;48.764;9.178;2022-08-19T07:51:53;20.00;99.90
33793;DHT22;20105;48.764;9.178;2022-08-19T07:54:20;20.00;99.90
33793;DHT22;20105;48.764;9.178;2022-08-19T07:56:46;20.00;99.90
33793;DHT22;20105;48.764;9.178;2022-08-19T07:59:12;20.10;99.90
33793;DHT22;20105;48.764;9.178;2022-08-19T08:01:38;20.10;99.90
33793;DHT22;20105;48.764;9.178;2022-08-19T08:04:06;20.00;99.90
33793;DHT22;20105;48.764;9.178;2022-08-19T08:06:50;20.00;99.90
33793;DHT22;20105;48.764;9.178;2022-08-19T08:09:39;20.00;99.90
33793;DHT22;20105;48.764;9.178;2022-08-19T08:14:36;20.00;99.90
33793;DHT22;20105;48.764;9.178;2022-08-19T08:17:04;20.00;99.90
33793;DHT22;20105;48.764;9.178;2022-08-19T08:19:30;20.00;99.90
33793;DHT22;20105;48.764;9.178;2022-08-19T08:21:58;19.90;99.90
33793;DHT22;20105;48.764;9.178;2022-08-19T08:24:25;19.90;99.90
33793;DHT22;20105;48.764;9.178;2022-08-19T08:26:51;19.90;99.90
33793;DHT22;20105;48.764;9.178;2022-08-19T08:29:17;19.70;99.90
33793;DHT22;20105;48.764;9.178;2022-08-19T08:31:45;19.60;99.90
33793;DHT22;20105;48.764;9.178;2022-08-19T08:34:13;19.40;99.90
33793;DHT22;20105;48.764;9.178;2022-08-19T08:36:44;19.30;99.90
33793;DHT22;20105;48.764;9.178;2022-08-19T08:39:13;19.20;99.90
33793;DHT22;20105;48.764;9.178;2022-08-19T08:44:15;19.20;99.90
33793;DHT22;20105;48.764;9.178;2022-08-19T08:46:55;19.30;99.90
33793;DHT22;20105;48.764;9.178;2022-08-19T08:49:49;19.30;99.90
33793;DHT22;20105;48.764;9.178;2022-08-19T08:52:31;19.30;99.90
33793;DHT22;20105;48.764;9.178;2022-08-19T08:55:05;19.30;99.90
33793;DHT22;20105;48.764;9.178;2022-08-19T09:00:26;19.50;99.90
33793;DHT22;20105;48.764;9.178;2022-08-19T09:02:54;19.50;99.90
33793;DHT22;20105;48.764;9.178;2022-08-19T09:05:20;19.50;99.90
33793;DHT22;20105;48.764;9.178;2022-08-19T09:08:01;19.50;99.90
33793;DHT22;20105;48.764;9.178;2022-08-19T09:10:44;19.60;99.90
33793;DHT22;20105;48.764;9.178;2022-08-19T09:13:32;19.60;99.90
33793;DHT22;20105;48.764;9.178;2022-08-19T09:16:09;19.70;99.90
33793;DHT22;20105;48.764;9.178;2022-08-19T09:18:43;19.80;99.90
33793;DHT22;20105;48.764;9.178;2022-08-19T09:21:11;19.90;99.90
33793;DHT22;20105;48.764;9.178;2022-08-19T09:23:37;19.90;99.90
33793;DHT22;20105;48.764;9.178;2022-08-19T09:26:11;20.00;99.90
33793;DHT22;20105;48.764;9.178;2022-08-19T09:28:39;20.10;99.90
33793;DHT22;20105;48.764;9.178;2022-08-19T09:31:10;20.20;99.90
33793;DHT22;20105;48.764;9.178;2022-08-19T09:33:37;20.30;99.90
33793;DHT22;20105;48.764;9.178;2022-08-19T09:36:09;20.30;99.90
33793;DHT22;20105;48.764;9.178;2022-08-19T09:38:36;20.40;99.90
33793;DHT22;20105;48.764;9.178;2022-08-19T09:41:03;20.40;99.90
33793;DHT22;20105;48.764;9.178;2022-08-19T09:43:30;20.40;99.90
33793;DHT22;20105;48.764;9.178;2022-08-19T09:45:56;20.50;99.90
33793;DHT22;20105;48.764;9.178;2022-08-19T09:48:22;20.50;99.90
33793;DHT22;20105;48.764;9.178;2022-08-19T09:50:47;20.60;99.90
33793;DHT22;20105;48.764;9.178;2022-08-19T09:53:13;20.60;99.90
33793;DHT22;20105;48.764;9.178;2022-08-19T09:55:42;20.70;99.90
33793;DHT22;20105;48.764;9.178;2022-08-19T09:58:08;20.80;99.90
33793;DHT22;20105;48.764;9.178;2022-08-19T10:00:37;20.80;99.90
33793;DHT22;20105;48.764;9.178;2022-08-19T10:03:03;20.90;99.90
33793;DHT22;20105;48.764;9.178;2022-08-19T10:05:29;20.90;99.90
33793;DHT22;20105;48.764;9.178;2022-08-19T10:08:13;20.90;99.90
33793;DHT22;20105;48.764;9.178;2022-08-19T10:10:39;20.90;99.90
33793;DHT22;20105;48.764;9.178;2022-08-19T10:13:04;21.00;99.90
33793;DHT22;20105;48.764;9.178;2022-08-19T10:15:30;21.00;99.90
33793;DHT22;20105;48.764;9.178;2022-08-19T10:17:56;21.10;99.90
33793;DHT22;20105;48.764;9.178;2022-08-19T10:20:21;21.20;99.90
33793;DHT22;20105;48.764;9.178;2022-08-19T10:22:48;21.20;99.90
33793;DHT22;20105;48.764;9.178;2022-08-19T10:25:15;21.20;99.90
33793;DHT22;20105;48.764;9.178;2022-08-19T10:27:42;21.30;99.90
33793;DHT22;20105;48.764;9.178;2022-08-19T10:30:08;21.20;99.90
33793;DHT22;20105;48.764;9.178;2022-08-19T10:32:34;21.20;99.90
33793;DHT22;20105;48.764;9.178;2022-08-19T10:34:59;21.20;99.90
33793;DHT22;20105;48.764;9.178;2022-08-19T10:37:25;21.20;99.90
33793;DHT22;20105;48.764;9.178;2022-08-19T10:39:51;21.20;99.90
33793;DHT22;20105;48.764;9.178;2022-08-19T10:42:17;21.30;99.90
33793;DHT22;20105;48.764;9.178;2022-08-19T10:44:43;21.30;99.90
33793;DHT22;20105;48.764;9.178;2022-08-19T10:47:12;21.30;99.90
33793;DHT22;20105;48.764;9.178;2022-08-19T10:49:37;21.30;99.90
33793;DHT22;20105;48.764;9.178;2022-08-19T10:52:23;21.40;99.90
33793;DHT22;20105;48.764;9.178;2022-08-19T10:55:05;21.60;99.90
33793;DHT22;20105;48.764;9.178;2022-08-19T10:57:50;21.70;99.90
33793;DHT22;20105;48.764;9.178;2022-08-19T11:00:17;21.80;99.90
33793;DHT22;20105;48.764;9.178;2022-08-19T11:02:42;21.80;99.90
33793;DHT22;20105;48.764;9.178;2022-08-19T11:05:08;21.80;99.90
33793;DHT22;20105;48.764;9.178;2022-08-19T11:07:38;21.80;99.90
33793;DHT22;20105;48.764;9.178;2022-08-19T11:10:05;21.70;99.90
33793;DHT22;20105;48.764;9.178;2022-08-19T11:12:31;21.70;99.90
33793;DHT22;20105;48.764;9.178;2022-08-19T11:14:58;21.70;99.90
33793;DHT22;20105;48.764;9.178;2022-08-19T11:17:23;21.70;99.90
33793;DHT22;20105;48.764;9.178;2022-08-19T11:19:49;21.80;99.90
33793;DHT22;20105;48.764;9.178;2022-08-19T11:22:15;21.90;99.90
33793;DHT22;20105;48.764;9.178;2022-08-19T11:24:41;22.00;99.90
33793;DHT22;20105;48.764;9.178;2022-08-19T11:27:08;22.10;99.90
33793;DHT22;20105;48.764;9.178;2022-08-19T11:29:39;22.20;99.90
33793;DHT22;20105;48.764;9.178;2022-08-19T11:32:07;22.20;99.90
33793;DHT22;20105;48.764;9.178;2022-08-19T11:34:35;22.40;99.90
33793;DHT22;20105;48.764;9.178;2022-08-19T11:37:02;22.40;99.90
33793;DHT22;20105;48.764;9.178;2022-08-19T11:39:30;22.60;99.90
33793;DHT22;20105;48.764;9.178;2022-08-19T11:42:01;22.70;99.90
33793;DHT22;20105;48.764;9.178;2022-08-19T11:44:28;22.70;99.90
33793;DHT22;20105;48.764;9.178;2022-08-19T11:46:56;22.80;99.90
33793;DHT22;20105;48.764;9.178;2022-08-19T11:49:22;22.80;99.90
33793;DHT22;20105;48.764;9.178;2022-08-19T11:51:48;22.80;99.90
33793;DHT22;20105;48.764;9.178;2022-08-19T11:54:16;22.80;99.90
33793;DHT22;20105;48.764;9.178;2022-08-19T11:56:43;22.80;99.90
33793;DHT22;20105;48.764;9.178;2022-08-19T11:59:11;22.90;99.90
33793;DHT22;20105;48.764;9.178;2022-08-19T12:01:37;22.90;99.90
33793;DHT22;20105;48.764;9.178;2022-08-19T12:04:03;23.00;99.90
33793;DHT22;20105;48.764;9.178;2022-08-19T12:06:31;23.00;99.90
33793;DHT22;20105;48.764;9.178;2022-08-19T12:09:00;23.10;99.90
33793;DHT22;20105;48.764;9.178;2022-08-19T12:11:26;23.20;99.90
33793;DHT22;20105;48.764;9.178;2022-08-19T12:13:52;23.10;99.90
33793;DHT22;20105;48.764;9.178;2022-08-19T12:16:21;23.10;99.90
33793;DHT22;20105;48.764;9.178;2022-08-19T12:18:48;23.10;99.90
33793;DHT22;20105;48.764;9.178;2022-08-19T12:21:19;23.10;99.90
33793;DHT22;20105;48.764;9.178;2022-08-19T12:23:50;23.10;99.90
33793;DHT22;20105;48.764;9.178;2022-08-19T12:26:17;23.10;99.90
33793;DHT22;20105;48.764;9.178;2022-08-19T12:28:43;23.00;99.90
33793;DHT22;20105;48.764;9.178;2022-08-19T12:31:09;23.10;99.90
33793;DHT22;20105;48.764;9.178;2022-08-19T12:33:37;23.10;99.90
33793;DHT22;20105;48.764;9.178;2022-08-19T12:36:05;23.00;99.90
33793;DHT22;20105;48.764;9.178;2022-08-19T12:38:32;23.10;99.90
33793;DHT22;20105;48.764;9.178;2022-08-19T12:40:58;23.00;99.90
33793;DHT22;20105;48.764;9.178;2022-08-19T12:43:24;22.90;99.90
33793;DHT22;20105;48.764;9.178;2022-08-19T12:45:49;22.80;99.90
33793;DHT22;20105;48.764;9.178;2022-08-19T12:48:15;22.70;99.90
33793;DHT22;20105;48.764;9.178;2022-08-19T12:50:44;22.60;99.90
33793;DHT22;20105;48.764;9.178;2022-08-19T12:53:11;22.60;99.90
33793;DHT22;20105;48.764;9.178;2022-08-19T12:55:37;22.60;99.90
33793;DHT22;20105;48.764;9.178;2022-08-19T12:58:03;22.70;99.90
33793;DHT22;20105;48.764;9.178;2022-08-19T13:00:29;22.80;99.90
33793;DHT22;20105;48.764;9.178;2022-08-19T13:02:56;23.00;99.90
33793;DHT22;20105;48.764;9.178;2022-08-19T13:05:29;23.20;99.90
33793;DHT22;20105;48.764;9.178;2022-08-19T13:07:57;23.40;99.90
33793;DHT22;20105;48.764;9.178;2022-08-19T13:10:26;23.60;99.90
33793;DHT22;20105;48.764;9.178;2022-08-19T13:12:53;23.50;99.90
33793;DHT22;20105;48.764;9.178;2022-08-19T13:15:20;23.50;99.90
33793;DHT22;20105;48.764;9.178;2022-08-19T13:17:47;23.30;99.90
33793;DHT22;20105;48.764;9.178;2022-08-19T13:20:15;23.10;99.90
33793;DHT22;20105;48.764;9.178;2022-08-19T13:22:40;23.00;99.90
33793;DHT22;20105;48.764;9.178;2022-08-19T13:25:07;23.00;99.90
33793;DHT22;20105;48.764;9.178;2022-08-19T13:27:33;22.80;99.90
33793;DHT22;20105;48.764;9.178;2022-08-19T13:29:59;22.80;99.90
33793;DHT22;20105;48.764;9.178;2022-08-19T13:32:43;22.70;99.90
33793;DHT22;20105;48.764;9.178;2022-08-19T13:35:27;22.60;99.90
33793;DHT22;20105;48.764;9.178;2022-08-19T13:37:53;22.40;99.90
33793;DHT22;20105;48.764;9.178;2022-08-19T13:40:22;22.30;99.90
33793;DHT22;20105;48.764;9.178;2022-08-19T13:42:50;22.20;99.90
33793;DHT22;20105;48.764;9.178;2022-08-19T13:45:19;22.20;99.90
33793;DHT22;20105;48.764;9.178;2022-08-19T13:47:47;22.10;99.90
33793;DHT22;20105;48.764;9.178;2022-08-19T13:50:15;21.90;99.90
33793;DHT22;20105;48.764;9.178;2022-08-19T13:52:42;21.80;99.90
33793;DHT22;20105;48.764;9.178;2022-08-19T13:55:09;21.90;99.90
33793;DHT22;20105;48.764;9.178;2022-08-19T13:57:36;21.70;99.90
33793;DHT22;20105;48.764;9.178;2022-08-19T14:00:09;21.60;99.90
33793;DHT22;20105;48.764;9.178;2022-08-19T14:02:37;21.40;99.90
33793;DHT22;20105;48.764;9.178;2022-08-19T14:05:08;21.30;99.90
33793;DHT22;20105;48.764;9.178;2022-08-19T14:07:34;21.10;99.90
33793;DHT22;20105;48.764;9.178;2022-08-19T14:09:59;21.10;99.90
33793;DHT22;20105;48.764;9.178;2022-08-19T14:12:25;21.00;99.90
33793;DHT22;20105;48.764;9.178;2022-08-19T14:14:50;20.90;99.90
33793;DHT22;20105;48.764;9.178;2022-08-19T14:17:16;20.90;99.90
33793;DHT22;20105;48.764;9.178;2022-08-19T14:19:42;20.90;99.90
33793;DHT22;20105;48.764;9.178;2022-08-19T14:22:08;20.90;99.90
33793;DHT22;20105;48.764;9.178;2022-08-19T14:24:33;20.90;99.90
33793;DHT22;20105;48.764;9.178;2022-08-19T14:26:59;20.80;99.90
33793;DHT22;20105;48.764;9.178;2022-08-19T14:29:25;20.80;99.90
33793;DHT22;20105;48.764;9.178;2022-08-19T14:31:52;20.90;99.90
33793;DHT22;20105;48.764;9.178;2022-08-19T14:34:17;21.10;99.90
33793;DHT22;20105;48.764;9.178;2022-08-19T14:36:43;21.00;99.90
33793;DHT22;20105;48.764;9.178;2022-08-19T14:39:10;21.20;99.90
33793;DHT22;20105;48.764;9.178;2022-08-19T14:41:40;21.20;99.90
33793;DHT22;20105;48.764;9.178;2022-08-19T14:44:07;21.40;99.90
33793;DHT22;20105;48.764;9.178;2022-08-19T14:46:35;21.60;99.90
33793;DHT22;20105;48.764;9.178;2022-08-19T14:49:00;21.70;99.90
33793;DHT22;20105;48.764;9.178;2022-08-19T14:51:26;21.80;99.90
33793;DHT22;20105;48.764;9.178;2022-08-19T14:53:52;21.70;99.90
33793;DHT22;20105;48.764;9.178;2022-08-19T14:56:21;21.90;99.90
33793;DHT22;20105;48.764;9.178;2022-08-19T14:58:47;22.00;99.90
33793;DHT22;20105;48.764;9.178;2022-08-19T15:01:17;22.00;99.90
33793;DHT22;20105;48.764;9.178;2022-08-19T15:03:45;21.70;99.90
33793;DHT22;20105;48.764;9.178;2022-08-19T15:06:11;21.60;99.90
33793;DHT22;20105;48.764;9.178;2022-08-19T15:08:37;21.70;99.90
33793;DHT22;20105;48.764;9.178;2022-08-19T15:11:08;21.90;99.90
33793;DHT22;20105;48.764;9.178;2022-08-19T15:13:35;22.00;99.90
33793;DHT22;20105;48.764;9.178;2022-08-19T15:16:02;22.20;99.90
33793;DHT22;20105;48.764;9.178;2022-08-19T15:18:31;22.30;99.90
33793;DHT22;20105;48.764;9.178;2022-08-19T15:20:58;22.50;99.90
33793;DHT22;20105;48.764;9.178;2022-08-19T15:23:26;22.60;99.90
33793;DHT22;20105;48.764;9.178;2022-08-19T15:25:51;22.70;99.90
33793;DHT22;20105;48.764;9.178;2022-08-19T15:28:21;22.70;99.90
33793;DHT22;20105;48.764;9.178;2022-08-19T15:30:47;23.00;99.90
33793;DHT22;20105;48.764;9.178;2022-08-19T15:33:12;23.10;99.90
33793;DHT22;20105;48.764;9.178;2022-08-19T15:35:45;23.20;99.90
33793;DHT22;20105;48.764;9.178;2022-08-19T15:38:11;23.40;99.90
33793;DHT22;20105;48.764;9.178;2022-08-19T15:40:39;23.30;99.90
33793;DHT22;20105;48.764;9.178;2022-08-19T15:43:06;23.30;99.90
33793;DHT22;20105;48.764;9.178;2022-08-19T15:45:32;23.20;99.90